createdAt,value
2024-03-24T00:00:28.841Z,3.2
2024-03-24T00:01:42.156Z,3.3
2024-03-24T00:02:56.450Z,3.3
2024-03-24T00:04:10.744Z,3.2
2024-03-24T00:05:25.038Z,3.2
2024-03-24T00:06:39.332Z,3.2
2024-03-24T00:07:53.626Z,3.2
2024-03-24T00:09:07.920Z,3.2
2024-03-24T00:10:22.214Z,3.2
2024-03-24T00:11:36.508Z,3.1
2024-03-24T00:12:50.802Z,3.2
2024-03-24T00:14:05.096Z,3.1
2024-03-24T00:15:19.390Z,3.1
2024-03-24T00:16:33.684Z,3.1
2024-03-24T00:17:46.994Z,3.1
2024-03-24T00:19:01.288Z,3.1
2024-03-24T00:20:15.582Z,3.1
2024-03-24T00:21:29.876Z,3.1
2024-03-24T00:22:44.170Z,3.1
2024-03-24T00:23:58.464Z,3.1
2024-03-24T00:25:12.758Z,3.1
2024-03-24T00:26:27.052Z,3.2
2024-03-24T00:27:41.346Z,3.2
2024-03-24T00:28:55.640Z,3.2
2024-03-24T00:30:09.934Z,3.2
2024-03-24T00:31:24.228Z,3.2
2024-03-24T00:32:38.522Z,3.2
2024-03-24T00:33:51.832Z,3.2
2024-03-24T00:35:06.126Z,3.2
2024-03-24T00:36:20.420Z,3.2
2024-03-24T00:37:34.714Z,3.1
2024-03-24T00:38:49.008Z,3.2
2024-03-24T00:40:03.302Z,3.1
2024-03-24T00:41:17.596Z,3.1
2024-03-24T00:42:31.890Z,3.1
2024-03-24T00:43:46.184Z,3.1
2024-03-24T00:45:00.478Z,3
2024-03-24T00:46:14.772Z,3
2024-03-24T00:47:29.066Z,3
2024-03-24T00:48:43.360Z,3
2024-03-24T00:49:56.670Z,2.9
2024-03-24T00:51:10.964Z,2.9
2024-03-24T00:52:25.258Z,2.9
2024-03-24T00:53:39.552Z,2.9
2024-03-24T00:54:53.846Z,2.9
2024-03-24T00:56:08.140Z,2.9
2024-03-24T00:57:22.434Z,2.9
2024-03-24T00:58:36.728Z,2.9
2024-03-24T00:59:51.022Z,2.9
2024-03-24T01:01:05.316Z,2.9
2024-03-24T01:02:19.610Z,2.9
2024-03-24T01:03:33.904Z,2.9
2024-03-24T01:04:48.198Z,2.8
2024-03-24T01:06:01.508Z,2.9
2024-03-24T01:07:15.802Z,2.9
2024-03-24T01:08:30.095Z,2.8
2024-03-24T01:09:44.390Z,2.8
2024-03-24T01:10:58.684Z,2.8
2024-03-24T01:12:12.978Z,2.8
2024-03-24T01:13:27.272Z,2.9
2024-03-24T01:14:41.566Z,2.9
2024-03-24T01:15:55.860Z,2.8
2024-03-24T01:17:10.154Z,2.9
2024-03-24T01:18:24.447Z,2.9
2024-03-24T01:19:38.742Z,2.9
2024-03-24T01:20:53.036Z,2.9
2024-03-24T01:22:06.346Z,2.9
2024-03-24T01:23:20.640Z,2.9
2024-03-24T01:24:34.934Z,2.9
2024-03-24T01:25:49.228Z,2.9
2024-03-24T01:27:03.522Z,2.8
2024-03-24T01:28:17.815Z,2.8
2024-03-24T01:29:32.109Z,2.8
2024-03-24T01:30:46.404Z,2.8
2024-03-24T01:32:00.697Z,2.7
2024-03-24T01:33:14.991Z,2.7
2024-03-24T01:34:29.285Z,2.7
2024-03-24T01:35:43.579Z,2.7
2024-03-24T01:36:57.873Z,2.6
2024-03-24T01:38:11.183Z,2.7
2024-03-24T01:39:25.477Z,2.6
2024-03-24T01:40:39.771Z,2.6
2024-03-24T01:41:54.066Z,2.6
2024-03-24T01:43:08.360Z,2.6
2024-03-24T01:44:22.654Z,2.6
2024-03-24T01:45:36.948Z,2.7
2024-03-24T01:46:51.242Z,2.7
2024-03-24T01:48:05.535Z,2.7
2024-03-24T01:49:19.829Z,2.6
2024-03-24T01:50:34.123Z,2.6
2024-03-24T01:51:48.419Z,2.6
2024-03-24T01:53:02.713Z,2.5
2024-03-24T01:54:16.023Z,2.5
2024-03-24T01:55:30.317Z,2.5
2024-03-24T01:56:44.611Z,2.5
2024-03-24T01:57:58.905Z,2.5
2024-03-24T01:59:13.199Z,2.5
2024-03-24T02:00:27.493Z,2.5
2024-03-24T02:01:41.787Z,2.5
2024-03-24T02:02:56.081Z,2.5
2024-03-24T02:04:10.375Z,2.5
2024-03-24T02:05:24.669Z,2.5
2024-03-24T02:06:38.963Z,2.5
2024-03-24T02:07:53.257Z,2.4
2024-03-24T02:09:07.551Z,2.4
2024-03-24T02:10:20.861Z,2.4
2024-03-24T02:11:35.155Z,2.4
2024-03-24T02:12:49.449Z,2.4
2024-03-24T02:14:03.743Z,2.3
2024-03-24T02:15:18.037Z,2.3
2024-03-24T02:16:32.331Z,2.3
2024-03-24T02:17:46.625Z,2.3
2024-03-24T02:19:00.919Z,2.2
2024-03-24T02:20:15.214Z,2.2
2024-03-24T02:21:29.508Z,2.2
2024-03-24T02:22:43.802Z,2.3
2024-03-24T02:23:58.096Z,2.2
2024-03-24T02:25:12.390Z,2.3
2024-03-24T02:26:26.684Z,2.2
2024-03-24T02:27:40.978Z,2.2
2024-03-24T02:28:54.288Z,2.3
2024-03-24T02:30:08.582Z,2.3
2024-03-24T02:31:22.876Z,2.4
2024-03-24T02:32:37.170Z,2.3
2024-03-24T02:33:51.464Z,2.3
2024-03-24T02:35:05.759Z,2.3
2024-03-24T02:36:20.053Z,2.3
2024-03-24T02:37:34.347Z,2.3
2024-03-24T02:38:48.641Z,2.3
2024-03-24T02:40:02.935Z,2.3
2024-03-24T02:41:17.229Z,2.3
2024-03-24T02:42:31.523Z,2.2
2024-03-24T02:43:45.817Z,2.2
2024-03-24T02:44:59.127Z,2.2
2024-03-24T02:46:13.421Z,2.2
2024-03-24T02:47:27.715Z,2.2
2024-03-24T02:48:42.010Z,2.2
2024-03-24T02:49:56.304Z,2.3
2024-03-24T02:51:10.598Z,2.3
2024-03-24T02:52:24.892Z,2.3
2024-03-24T02:53:39.186Z,2.3
2024-03-24T02:54:53.480Z,2.3
2024-03-24T02:56:07.774Z,2.3
2024-03-24T02:57:22.068Z,2.2
2024-03-24T02:58:36.362Z,2.2
2024-03-24T02:59:50.656Z,2.2
2024-03-24T03:01:03.966Z,2.2
2024-03-24T03:02:18.260Z,2.2
2024-03-24T03:03:32.554Z,2.2
2024-03-24T03:04:46.848Z,2.2
2024-03-24T03:06:01.142Z,2.2
2024-03-24T03:07:15.436Z,2.2
2024-03-24T03:08:29.730Z,2.3
2024-03-24T03:09:44.024Z,2.3
2024-03-24T03:10:58.318Z,2.3
2024-03-24T03:12:12.612Z,2.4
2024-03-24T03:13:26.906Z,2.3
2024-03-24T03:14:41.200Z,2.4
2024-03-24T03:15:55.494Z,2.4
2024-03-24T03:17:08.804Z,2.4
2024-03-24T03:18:23.098Z,2.4
2024-03-24T03:19:37.392Z,2.4
2024-03-24T03:20:51.686Z,2.4
2024-03-24T03:22:05.980Z,2.4
2024-03-24T03:23:20.274Z,2.4
2024-03-24T03:24:34.568Z,2.3
2024-03-24T03:25:48.862Z,2.3
2024-03-24T03:27:03.155Z,2.3
2024-03-24T03:28:17.450Z,2.3
2024-03-24T03:29:31.744Z,2.3
2024-03-24T03:30:46.038Z,2.3
2024-03-24T03:32:00.332Z,2.2
2024-03-24T03:33:13.642Z,2.3
2024-03-24T03:34:27.936Z,2.3
2024-03-24T03:35:42.229Z,2.3
2024-03-24T03:36:56.523Z,2.3
2024-03-24T03:38:10.817Z,2.3
2024-03-24T03:39:25.112Z,2.3
2024-03-24T03:40:39.405Z,2.3
2024-03-24T03:41:53.699Z,2.3
2024-03-24T03:43:07.993Z,2.3
2024-03-24T03:44:22.287Z,2.4
2024-03-24T03:45:36.581Z,2.4
2024-03-24T03:46:50.875Z,2.4
2024-03-24T03:48:05.169Z,2.4
2024-03-24T03:49:18.479Z,2.4
2024-03-24T03:50:32.774Z,2.4
2024-03-24T03:51:47.068Z,2.5
2024-03-24T03:53:01.361Z,2.4
2024-03-24T03:54:15.655Z,2.5
2024-03-24T03:55:29.950Z,2.5
2024-03-24T03:56:44.244Z,2.5
2024-03-24T03:57:58.538Z,2.5
2024-03-24T03:59:12.832Z,2.5
2024-03-24T04:00:27.127Z,2.5
2024-03-24T04:01:41.421Z,2.6
2024-03-24T04:02:55.714Z,2.6
2024-03-24T04:04:10.008Z,2.6
2024-03-24T04:05:23.318Z,2.6
2024-03-24T04:06:37.612Z,2.6
2024-03-24T04:07:51.906Z,2.6
2024-03-24T04:09:06.200Z,2.6
2024-03-24T04:10:19.515Z,2.6
2024-03-24T04:11:33.809Z,2.6
2024-03-24T04:12:48.104Z,2.6
2024-03-24T04:14:02.398Z,2.6
2024-03-24T04:15:16.691Z,2.6
2024-03-24T04:16:30.985Z,2.6
2024-03-24T04:17:45.279Z,2.6
2024-03-24T04:18:59.573Z,2.6
2024-03-24T04:20:13.867Z,2.5
2024-03-24T04:21:28.161Z,2.5
2024-03-24T04:22:42.455Z,2.5
2024-03-24T04:23:56.749Z,2.5
2024-03-24T04:25:11.043Z,2.5
2024-03-24T04:26:24.310Z,2.5
2024-03-24T04:27:38.550Z,2.5
2024-03-24T04:28:52.844Z,2.5
2024-03-24T04:30:07.139Z,2.5
2024-03-24T04:31:21.433Z,2.5
2024-03-24T04:32:35.727Z,2.5
2024-03-24T04:33:50.022Z,2.5
2024-03-24T04:35:04.317Z,2.5
2024-03-24T04:36:18.568Z,2.6
2024-03-24T04:37:32.808Z,2.6
2024-03-24T04:38:47.048Z,2.6
2024-03-24T04:40:01.288Z,2.6
2024-03-24T04:41:15.528Z,2.7
2024-03-24T04:42:28.784Z,2.7
2024-03-24T04:43:43.024Z,2.6
2024-03-24T04:44:57.264Z,2.7
2024-03-24T04:46:11.504Z,2.7
2024-03-24T04:47:25.744Z,2.7
2024-03-24T04:48:39.984Z,2.7
2024-03-24T04:49:54.224Z,2.6
2024-03-24T04:51:08.464Z,2.6
2024-03-24T04:52:22.704Z,2.6
2024-03-24T04:53:36.944Z,2.6
2024-03-24T04:54:51.185Z,2.6
2024-03-24T04:56:05.425Z,2.5
2024-03-24T04:57:19.665Z,2.5
2024-03-24T04:58:32.921Z,2.5
2024-03-24T04:59:47.161Z,2.5
2024-03-24T05:01:01.401Z,2.4
2024-03-24T05:02:15.641Z,2.4
2024-03-24T05:03:29.881Z,2.4
2024-03-24T05:04:44.121Z,2.4
2024-03-24T05:05:58.361Z,2.4
2024-03-24T05:07:12.601Z,2.4
2024-03-24T05:08:26.841Z,2.4
2024-03-24T05:09:41.081Z,2.4
2024-03-24T05:10:55.321Z,2.4
2024-03-24T05:12:09.562Z,2.5
2024-03-24T05:13:23.802Z,2.5
2024-03-24T05:14:37.058Z,2.5
2024-03-24T05:15:51.298Z,2.5
2024-03-24T05:17:05.538Z,2.5
2024-03-24T05:18:19.778Z,2.5
2024-03-24T05:19:34.018Z,2.5
2024-03-24T05:20:48.258Z,2.6
2024-03-24T05:22:02.498Z,2.6
2024-03-24T05:23:16.738Z,2.6
2024-03-24T05:24:30.978Z,2.6
2024-03-24T05:25:45.218Z,2.7
2024-03-24T05:26:59.458Z,2.7
2024-03-24T05:28:13.698Z,2.7
2024-03-24T05:29:27.938Z,2.7
2024-03-24T05:30:41.194Z,2.9
2024-03-24T05:31:55.435Z,2.9
2024-03-24T05:33:09.674Z,2.9
2024-03-24T05:34:23.914Z,3
2024-03-24T05:35:38.154Z,3
2024-03-24T05:36:52.395Z,3.1
2024-03-24T05:38:06.636Z,3.1
2024-03-24T05:39:20.876Z,3.2
2024-03-24T05:40:35.116Z,3.4
2024-03-24T05:41:49.356Z,3.7
2024-03-24T05:43:03.595Z,4.1
2024-03-24T05:44:17.835Z,4.4
2024-03-24T05:45:32.075Z,4.6
2024-03-24T05:46:45.331Z,4.7
2024-03-24T05:47:59.571Z,4.7
2024-03-24T05:49:13.811Z,4.8
2024-03-24T05:50:28.051Z,4.8
2024-03-24T05:51:42.291Z,4.8
2024-03-24T05:52:56.531Z,4.7
2024-03-24T05:54:10.771Z,4.5
2024-03-24T05:55:25.010Z,4.5
2024-03-24T05:56:39.250Z,4.4
2024-03-24T05:57:53.490Z,4.3
2024-03-24T05:59:07.729Z,4.2
2024-03-24T06:00:21.969Z,4.1
2024-03-24T06:01:36.208Z,4.1
2024-03-24T06:02:49.464Z,4.1
2024-03-24T06:04:03.703Z,4.1
2024-03-24T06:05:17.943Z,4.1
2024-03-24T06:06:32.182Z,4
2024-03-24T06:07:46.422Z,4
2024-03-24T06:09:00.661Z,4
2024-03-24T06:10:14.901Z,4
2024-03-24T06:11:29.141Z,4
2024-03-24T06:12:43.380Z,4
2024-03-24T06:13:57.620Z,4
2024-03-24T06:15:11.860Z,4
2024-03-24T06:16:26.100Z,4
2024-03-24T06:17:40.340Z,4
2024-03-24T06:18:53.596Z,4
2024-03-24T06:20:07.836Z,4
2024-03-24T06:21:22.077Z,4.1
2024-03-24T06:22:36.317Z,4.1
2024-03-24T06:23:50.557Z,4
2024-03-24T06:25:04.797Z,4.1
2024-03-24T06:26:19.037Z,4.1
2024-03-24T06:27:33.277Z,4.1
2024-03-24T06:28:47.517Z,4.2
2024-03-24T06:30:01.758Z,4.1
2024-03-24T06:31:15.998Z,4.2
2024-03-24T06:32:30.238Z,4.2
2024-03-24T06:33:44.478Z,4.2
2024-03-24T06:34:57.734Z,4.3
2024-03-24T06:36:11.974Z,4.2
2024-03-24T06:37:26.214Z,4.3
2024-03-24T06:38:40.435Z,4.3
2024-03-24T06:39:54.693Z,4.3
2024-03-24T06:41:08.934Z,4.3
2024-03-24T06:42:23.174Z,4.3
2024-03-24T06:43:37.414Z,4.3
2024-03-24T06:44:51.654Z,4.3
2024-03-24T06:46:05.895Z,4.3
2024-03-24T06:47:20.135Z,4.3
2024-03-24T06:48:34.375Z,4.3
2024-03-24T06:49:48.615Z,4.4
2024-03-24T06:51:01.871Z,4.4
2024-03-24T06:52:16.111Z,4.5
2024-03-24T06:53:30.351Z,4.5
2024-03-24T06:54:44.591Z,4.6
2024-03-24T06:55:58.831Z,4.6
2024-03-24T06:57:13.071Z,4.6
2024-03-24T06:58:27.311Z,4.6
2024-03-24T06:59:41.551Z,4.6
2024-03-24T07:00:55.791Z,4.7
2024-03-24T07:02:10.030Z,4.8
2024-03-24T07:03:24.270Z,4.9
2024-03-24T07:04:38.509Z,5
2024-03-24T07:05:52.749Z,5.1
2024-03-24T07:07:06.005Z,5.3
2024-03-24T07:08:20.244Z,5.3
2024-03-24T07:09:34.484Z,5.4
2024-03-24T07:10:48.723Z,5.5
2024-03-24T07:12:02.962Z,5.6
2024-03-24T07:13:17.202Z,5.6
2024-03-24T07:14:31.442Z,5.6
2024-03-24T07:15:45.681Z,5.6
2024-03-24T07:16:59.921Z,5.7
2024-03-24T07:18:14.160Z,5.7
2024-03-24T07:19:28.400Z,5.7
2024-03-24T07:20:42.639Z,5.8
2024-03-24T07:21:56.879Z,5.7
2024-03-24T07:23:10.134Z,5.8
2024-03-24T07:24:24.374Z,5.7
2024-03-24T07:25:38.614Z,5.6
2024-03-24T07:26:52.854Z,5.6
2024-03-24T07:28:07.093Z,5.7
2024-03-24T07:29:21.333Z,5.7
2024-03-24T07:30:35.573Z,5.8
2024-03-24T07:31:49.813Z,5.8
2024-03-24T07:33:04.053Z,5.7
2024-03-24T07:34:18.293Z,5.7
2024-03-24T07:35:32.533Z,5.6
2024-03-24T07:36:46.772Z,5.6
2024-03-24T07:38:01.012Z,5.6
2024-03-24T07:39:14.268Z,5.7
2024-03-24T07:40:28.507Z,5.6
2024-03-24T07:41:42.747Z,5.8
2024-03-24T07:42:56.986Z,5.8
2024-03-24T07:44:11.226Z,5.9
2024-03-24T07:45:25.465Z,6
2024-03-24T07:46:39.705Z,6
2024-03-24T07:47:53.945Z,6.1
2024-03-24T07:49:08.185Z,6.2
2024-03-24T07:50:22.425Z,6.2
2024-03-24T07:51:36.665Z,6.3
2024-03-24T07:52:50.905Z,6.4
2024-03-24T07:54:05.144Z,6.5
2024-03-24T07:55:18.400Z,6.6
2024-03-24T07:56:32.640Z,6.6
2024-03-24T07:57:46.880Z,6.7
2024-03-24T07:59:01.120Z,6.7
2024-03-24T08:00:15.359Z,6.8
2024-03-24T08:01:29.599Z,6.8
2024-03-24T08:02:43.838Z,6.9
2024-03-24T08:03:58.078Z,6.9
2024-03-24T08:05:12.317Z,6.8
2024-03-24T08:06:26.557Z,6.7
2024-03-24T08:07:40.798Z,6.7
2024-03-24T08:08:55.037Z,6.6
2024-03-24T08:10:09.277Z,6.4
2024-03-24T08:11:22.533Z,6.3
2024-03-24T08:12:36.772Z,6.3
2024-03-24T08:13:51.012Z,6.3
2024-03-24T08:15:05.252Z,6.3
2024-03-24T08:16:19.491Z,6.3
2024-03-24T08:17:33.731Z,6.3
2024-03-24T08:18:46.992Z,6.3
2024-03-24T08:20:01.232Z,6.2
2024-03-24T08:21:15.471Z,6.3
2024-03-24T08:22:29.711Z,6.3
2024-03-24T08:23:43.950Z,6.3
2024-03-24T08:24:58.190Z,6.3
2024-03-24T08:26:12.430Z,6.3
2024-03-24T08:27:26.669Z,6.3
2024-03-24T08:28:40.909Z,6.5
2024-03-24T08:29:55.149Z,6.6
2024-03-24T08:31:09.388Z,6.7
2024-03-24T08:32:23.628Z,6.8
2024-03-24T08:33:37.868Z,6.9
2024-03-24T08:34:51.123Z,6.9
2024-03-24T08:36:05.363Z,6.8
2024-03-24T08:37:19.603Z,6.8
2024-03-24T08:38:33.842Z,6.7
2024-03-24T08:39:48.082Z,6.8
2024-03-24T08:41:02.322Z,6.8
2024-03-24T08:42:16.562Z,7
2024-03-24T08:43:30.801Z,6.9
2024-03-24T08:44:45.041Z,7
2024-03-24T08:45:59.280Z,7.1
2024-03-24T08:47:13.520Z,7.2
2024-03-24T08:48:27.759Z,7.2
2024-03-24T08:49:41.999Z,7.3
2024-03-24T08:50:55.255Z,7.3
2024-03-24T08:52:09.495Z,7.2
2024-03-24T08:53:23.734Z,7.1
2024-03-24T08:54:37.974Z,7.1
2024-03-24T08:55:52.213Z,7.1
2024-03-24T08:57:06.453Z,7.1
2024-03-24T08:58:20.692Z,7
2024-03-24T08:59:34.932Z,7
2024-03-24T09:00:49.172Z,6.9
2024-03-24T09:02:03.411Z,6.9
2024-03-24T09:03:17.651Z,6.9
2024-03-24T09:04:31.891Z,6.8
2024-03-24T09:05:46.130Z,6.7
2024-03-24T09:06:59.386Z,6.7
2024-03-24T09:08:13.625Z,6.6
2024-03-24T09:09:27.865Z,6.2
2024-03-24T09:10:42.105Z,6
2024-03-24T09:11:56.344Z,5.9
2024-03-24T09:13:10.584Z,5.8
2024-03-24T09:14:24.824Z,5.7
2024-03-24T09:15:39.063Z,5.6
2024-03-24T09:16:53.303Z,5.4
2024-03-24T09:18:07.543Z,5.5
2024-03-24T09:19:21.782Z,5.4
2024-03-24T09:20:36.022Z,5.4
2024-03-24T09:21:50.262Z,5.4
2024-03-24T09:23:03.518Z,5.4
2024-03-24T09:24:17.758Z,5.4
2024-03-24T09:25:31.997Z,5.4
2024-03-24T09:26:46.237Z,5.4
2024-03-24T09:28:00.477Z,5.4
2024-03-24T09:29:14.716Z,5.5
2024-03-24T09:30:28.956Z,5.5
2024-03-24T09:31:43.196Z,5.5
2024-03-24T09:32:57.436Z,5.6
2024-03-24T09:34:11.676Z,5.6
2024-03-24T09:35:25.916Z,5.6
2024-03-24T09:36:40.156Z,5.7
2024-03-24T09:37:54.395Z,5.7
2024-03-24T09:39:07.651Z,5.7
2024-03-24T09:40:21.890Z,5.8
2024-03-24T09:41:36.130Z,5.8
2024-03-24T09:42:50.369Z,5.9
2024-03-24T09:44:04.609Z,6
2024-03-24T09:45:18.849Z,6.1
2024-03-24T09:46:33.088Z,6.1
2024-03-24T09:47:47.328Z,6.1
2024-03-24T09:49:01.567Z,6.2
2024-03-24T09:50:15.806Z,6.2
2024-03-24T09:51:30.046Z,6.3
2024-03-24T09:52:44.286Z,6.2
2024-03-24T09:53:58.526Z,6.2
2024-03-24T09:55:11.782Z,6.2
2024-03-24T09:56:26.022Z,6.2
2024-03-24T09:57:40.262Z,6.2
2024-03-24T09:58:54.501Z,6.2
2024-03-24T10:00:08.741Z,6.2
2024-03-24T10:01:22.981Z,6.2
2024-03-24T10:02:37.220Z,6.3
2024-03-24T10:03:51.460Z,6.3
2024-03-24T10:05:05.699Z,6.3
2024-03-24T10:06:19.940Z,6.3
2024-03-24T10:07:34.179Z,6.3
2024-03-24T10:08:48.419Z,6.3
2024-03-24T10:10:02.659Z,6.3
2024-03-24T10:11:16.898Z,6.3
2024-03-24T10:12:30.154Z,6.3
2024-03-24T10:13:44.394Z,6.2
2024-03-24T10:14:58.634Z,6.3
2024-03-24T10:16:12.873Z,6.3
2024-03-24T10:17:27.114Z,6.2
2024-03-24T10:18:41.353Z,6.1
2024-03-24T10:19:55.593Z,6.1
2024-03-24T10:21:09.833Z,6.1
2024-03-24T10:22:24.072Z,6.2
2024-03-24T10:23:38.312Z,6.1
2024-03-24T10:24:52.552Z,6.1
2024-03-24T10:26:06.793Z,6.1
2024-03-24T10:27:21.033Z,6.2
2024-03-24T10:28:34.289Z,6.2
2024-03-24T10:29:48.528Z,6.2
2024-03-24T10:31:02.768Z,6.2
2024-03-24T10:32:17.009Z,6.2
2024-03-24T10:33:31.249Z,6.2
2024-03-24T10:34:45.488Z,6.1
2024-03-24T10:35:59.728Z,6.1
2024-03-24T10:37:13.967Z,6.2
2024-03-24T10:38:28.207Z,6.2
2024-03-24T10:39:42.447Z,6.1
2024-03-24T10:40:56.686Z,6.1
2024-03-24T10:42:10.926Z,6.1
2024-03-24T10:43:25.166Z,6.1
2024-03-24T10:44:38.422Z,6.1
2024-03-24T10:45:52.662Z,6.1
2024-03-24T10:47:06.902Z,6.1
2024-03-24T10:48:21.141Z,6.1
2024-03-24T10:49:35.381Z,6.1
2024-03-24T10:50:49.621Z,6.1
2024-03-24T10:52:03.860Z,6.1
2024-03-24T10:53:18.100Z,6.1
2024-03-24T10:54:32.340Z,6
2024-03-24T10:55:46.579Z,6
2024-03-24T10:57:00.819Z,6
2024-03-24T10:58:15.059Z,5.9
2024-03-24T10:59:29.299Z,6
2024-03-24T11:00:42.554Z,6
2024-03-24T11:01:56.794Z,6
2024-03-24T11:03:11.034Z,6
2024-03-24T11:04:25.273Z,6
2024-03-24T11:05:39.513Z,6
2024-03-24T11:06:53.752Z,6
2024-03-24T11:08:07.992Z,6
2024-03-24T11:09:22.232Z,6.1
2024-03-24T11:10:36.472Z,6
2024-03-24T11:11:50.711Z,6.1
2024-03-24T11:13:04.951Z,6.1
2024-03-24T11:14:19.190Z,6.1
2024-03-24T11:15:33.430Z,6.1
2024-03-24T11:16:46.686Z,6.1
2024-03-24T11:18:00.925Z,6.1
2024-03-24T11:19:15.164Z,6.1
2024-03-24T11:20:29.403Z,6.2
2024-03-24T11:21:43.643Z,6.2
2024-03-24T11:22:57.883Z,6.2
2024-03-24T11:24:12.122Z,6.3
2024-03-24T11:25:26.361Z,6.3
2024-03-24T11:26:40.600Z,6.3
2024-03-24T11:27:54.840Z,6.4
2024-03-24T11:29:09.079Z,6.4
2024-03-24T11:30:23.319Z,6.5
2024-03-24T11:31:37.559Z,6.5
2024-03-24T11:32:50.814Z,6.5
2024-03-24T11:34:05.054Z,6.5
2024-03-24T11:35:19.293Z,6.5
2024-03-24T11:36:33.533Z,6.6
2024-03-24T11:37:47.773Z,6.6
2024-03-24T11:39:02.012Z,6.6
2024-03-24T11:40:16.251Z,6.6
2024-03-24T11:41:30.491Z,6.7
2024-03-24T11:42:44.731Z,6.7
2024-03-24T11:43:58.971Z,6.8
2024-03-24T11:45:13.210Z,6.8
2024-03-24T11:46:27.450Z,6.8
2024-03-24T11:47:41.689Z,6.8
2024-03-24T11:48:54.945Z,6.8
2024-03-24T11:50:09.185Z,6.8
2024-03-24T11:51:23.424Z,6.9
2024-03-24T11:52:37.664Z,6.9
2024-03-24T11:53:51.904Z,6.9
2024-03-24T11:55:06.144Z,7
2024-03-24T11:56:20.384Z,7.1
2024-03-24T11:57:34.623Z,7.1
2024-03-24T11:58:48.863Z,7.1
2024-03-24T12:00:03.102Z,7.1
2024-03-24T12:01:17.342Z,7.2
2024-03-24T12:02:31.582Z,7.2
2024-03-24T12:03:45.822Z,7.2
2024-03-24T12:04:59.078Z,7.2
2024-03-24T12:06:13.317Z,7.2
2024-03-24T12:07:27.557Z,7.2
2024-03-24T12:08:41.796Z,7.3
2024-03-24T12:09:56.036Z,7.4
2024-03-24T12:11:10.275Z,7.3
2024-03-24T12:12:24.515Z,7.4
2024-03-24T12:13:38.754Z,7.4
2024-03-24T12:14:52.994Z,7.4
2024-03-24T12:16:07.234Z,7.4
2024-03-24T12:17:21.473Z,7.4
2024-03-24T12:18:35.713Z,7.3
2024-03-24T12:19:49.953Z,7.3
2024-03-24T12:21:03.208Z,7.3
2024-03-24T12:22:17.448Z,7.3
2024-03-24T12:23:31.687Z,7.2
2024-03-24T12:24:45.927Z,7.2
2024-03-24T12:26:00.167Z,7.2
2024-03-24T12:27:13.428Z,7.2
2024-03-24T12:28:27.667Z,7.2
2024-03-24T12:29:41.907Z,7.2
2024-03-24T12:30:56.146Z,7.2
2024-03-24T12:32:10.386Z,7.1
2024-03-24T12:33:24.626Z,7.2
2024-03-24T12:34:38.865Z,7.2
2024-03-24T12:35:53.105Z,7.2
2024-03-24T12:37:07.345Z,7.3
2024-03-24T12:38:21.584Z,7.2
2024-03-24T12:39:35.825Z,7.3
2024-03-24T12:40:50.064Z,7.2
2024-03-24T12:42:04.304Z,7.2
2024-03-24T12:43:17.559Z,7.2
2024-03-24T12:44:31.799Z,7.2
2024-03-24T12:45:46.038Z,7.1
2024-03-24T12:47:00.278Z,7.2
2024-03-24T12:48:14.518Z,7.2
2024-03-24T12:49:28.757Z,7.2
2024-03-24T12:50:42.997Z,7.2
2024-03-24T12:51:57.237Z,7.1
2024-03-24T12:53:11.476Z,7.1
2024-03-24T12:54:25.716Z,7.2
2024-03-24T12:55:39.955Z,7.2
2024-03-24T12:56:54.195Z,7.2
2024-03-24T12:58:08.435Z,7.3
2024-03-24T12:59:21.691Z,7.3
2024-03-24T13:00:35.930Z,7.4
2024-03-24T13:01:50.170Z,7.4
2024-03-24T13:03:04.409Z,7.4
2024-03-24T13:04:18.649Z,7.4
2024-03-24T13:05:32.888Z,7.6
2024-03-24T13:06:47.128Z,7.7
2024-03-24T13:08:01.367Z,7.8
2024-03-24T13:09:15.607Z,7.9
2024-03-24T13:10:29.847Z,8
2024-03-24T13:11:44.086Z,8
2024-03-24T13:12:58.326Z,8.1
2024-03-24T13:14:12.565Z,8.1
2024-03-24T13:15:25.821Z,8.2
2024-03-24T13:16:40.060Z,8.1
2024-03-24T13:17:54.300Z,8.1
2024-03-24T13:19:08.539Z,8.1
2024-03-24T13:20:22.779Z,8
2024-03-24T13:21:37.018Z,8.1
2024-03-24T13:22:51.258Z,8.2
2024-03-24T13:24:05.497Z,8.2
2024-03-24T13:25:19.737Z,8.2
2024-03-24T13:26:33.976Z,8.1
2024-03-24T13:27:48.216Z,7.8
2024-03-24T13:29:02.456Z,7.8
2024-03-24T13:30:16.696Z,7.8
2024-03-24T13:31:29.951Z,7.7
2024-03-24T13:32:44.191Z,7.7
2024-03-24T13:33:58.430Z,7.7
2024-03-24T13:35:12.669Z,7.7
2024-03-24T13:36:26.909Z,7.7
2024-03-24T13:37:41.148Z,7.7
2024-03-24T13:38:55.388Z,7.8
2024-03-24T13:40:09.627Z,7.9
2024-03-24T13:41:23.867Z,7.9
2024-03-24T13:42:38.107Z,7.9
2024-03-24T13:43:52.346Z,7.9
2024-03-24T13:45:06.586Z,8.1
2024-03-24T13:46:20.825Z,8.2
2024-03-24T13:47:34.081Z,8.2
2024-03-24T13:48:48.320Z,8.2
2024-03-24T13:50:02.560Z,8.1
2024-03-24T13:51:16.799Z,8
2024-03-24T13:52:31.039Z,8
2024-03-24T13:53:45.279Z,8
2024-03-24T13:54:59.518Z,8.1
2024-03-24T13:56:13.758Z,8.1
2024-03-24T13:57:27.997Z,8.2
2024-03-24T13:58:42.237Z,8.3
2024-03-24T13:59:56.476Z,8.3
2024-03-24T14:01:10.716Z,8.3
2024-03-24T14:02:24.955Z,8.3
2024-03-24T14:03:38.211Z,8.4
2024-03-24T14:04:52.450Z,8.5
2024-03-24T14:06:06.691Z,8.6
2024-03-24T14:07:20.930Z,8.6
2024-03-24T14:08:35.170Z,8.6
2024-03-24T14:09:49.409Z,8.6
2024-03-24T14:11:03.648Z,8.6
2024-03-24T14:12:17.888Z,8.7
2024-03-24T14:13:32.128Z,8.7
2024-03-24T14:14:46.368Z,8.6
2024-03-24T14:16:00.607Z,8.6
2024-03-24T14:17:14.847Z,8.5
2024-03-24T14:18:29.086Z,8.6
2024-03-24T14:19:42.342Z,8.5
2024-03-24T14:20:56.582Z,8.6
2024-03-24T14:22:10.822Z,8.7
2024-03-24T14:23:25.061Z,8.8
2024-03-24T14:24:39.302Z,8.8
2024-03-24T14:25:53.542Z,8.7
2024-03-24T14:27:07.782Z,8.8
2024-03-24T14:28:22.022Z,8.9
2024-03-24T14:29:36.261Z,9
2024-03-24T14:30:50.502Z,9.1
2024-03-24T14:32:04.742Z,9.2
2024-03-24T14:33:18.981Z,9.1
2024-03-24T14:34:33.220Z,9.1
2024-03-24T14:35:46.476Z,9.1
2024-03-24T14:37:00.716Z,9
2024-03-24T14:38:14.955Z,8.9
2024-03-24T14:39:29.195Z,8.8
2024-03-24T14:40:43.435Z,8.8
2024-03-24T14:41:57.674Z,8.7
2024-03-24T14:43:11.914Z,8.8
2024-03-24T14:44:26.153Z,8.8
2024-03-24T14:45:40.393Z,8.8
2024-03-24T14:46:54.632Z,8.7
2024-03-24T14:48:08.872Z,8.6
2024-03-24T14:49:23.111Z,8.6
2024-03-24T14:50:37.351Z,8.6
2024-03-24T14:51:50.607Z,8.5
2024-03-24T14:53:04.847Z,8.6
2024-03-24T14:54:19.087Z,8.6
2024-03-24T14:55:33.326Z,8.6
2024-03-24T14:56:47.567Z,8.7
2024-03-24T14:58:01.806Z,8.7
2024-03-24T14:59:16.046Z,8.7
2024-03-24T15:00:30.286Z,8.7
2024-03-24T15:01:44.525Z,8.8
2024-03-24T15:02:58.765Z,8.9
2024-03-24T15:04:13.005Z,9
2024-03-24T15:05:27.244Z,9
2024-03-24T15:06:41.484Z,9
2024-03-24T15:07:54.740Z,9
2024-03-24T15:09:08.980Z,9
2024-03-24T15:10:23.220Z,8.9
2024-03-24T15:11:37.460Z,8.9
2024-03-24T15:12:51.700Z,9
2024-03-24T15:14:05.939Z,8.8
2024-03-24T15:15:20.179Z,8.8
2024-03-24T15:16:34.419Z,8.7
2024-03-24T15:17:48.659Z,8.6
2024-03-24T15:19:02.899Z,8.6
2024-03-24T15:20:17.139Z,8.5
2024-03-24T15:21:31.378Z,8.4
2024-03-24T15:22:45.619Z,8.3
2024-03-24T15:23:58.875Z,8.3
2024-03-24T15:25:13.114Z,8.3
2024-03-24T15:26:27.354Z,8.3
2024-03-24T15:27:41.594Z,8.2
2024-03-24T15:28:55.834Z,8.1
2024-03-24T15:30:10.074Z,8.1
2024-03-24T15:31:24.313Z,8.1
2024-03-24T15:32:38.553Z,8.1
2024-03-24T15:33:52.792Z,8.1
2024-03-24T15:35:07.032Z,8.1
2024-03-24T15:36:21.272Z,8.1
2024-03-24T15:37:35.511Z,8
2024-03-24T15:38:49.751Z,8
2024-03-24T15:40:03.007Z,8
2024-03-24T15:41:17.246Z,8
2024-03-24T15:42:31.486Z,8
2024-03-24T15:43:45.725Z,7.9
2024-03-24T15:44:59.965Z,7.9
2024-03-24T15:46:14.204Z,7.8
2024-03-24T15:47:28.444Z,7.9
2024-03-24T15:48:42.683Z,7.8
2024-03-24T15:49:56.923Z,7.8
2024-03-24T15:51:11.163Z,7.8
2024-03-24T15:52:25.402Z,7.8
2024-03-24T15:53:39.642Z,7.8
2024-03-24T15:54:53.881Z,7.7
2024-03-24T15:56:07.137Z,7.7
2024-03-24T15:57:21.376Z,7.7
2024-03-24T15:58:35.616Z,7.7
2024-03-24T15:59:49.856Z,7.7
2024-03-24T16:01:04.096Z,7.7
2024-03-24T16:02:18.335Z,7.6
2024-03-24T16:03:32.575Z,7.6
2024-03-24T16:04:46.814Z,7.6
2024-03-24T16:06:01.054Z,7.5
2024-03-24T16:07:15.293Z,7.5
2024-03-24T16:08:29.533Z,7.5
2024-03-24T16:09:43.773Z,7.5
2024-03-24T16:10:58.013Z,7.5
2024-03-24T16:12:11.268Z,7.5
2024-03-24T16:13:25.508Z,7.4
2024-03-24T16:14:39.748Z,7.3
2024-03-24T16:15:53.987Z,7.2
2024-03-24T16:17:08.227Z,7.2
2024-03-24T16:18:22.466Z,7
2024-03-24T16:19:36.706Z,7
2024-03-24T16:20:50.945Z,7
2024-03-24T16:22:05.185Z,6.9
2024-03-24T16:23:19.425Z,6.9
2024-03-24T16:24:33.665Z,6.9
2024-03-24T16:25:47.905Z,6.9
2024-03-24T16:27:02.145Z,6.9
2024-03-24T16:28:15.401Z,6.9
2024-03-24T16:29:29.640Z,6.9
2024-03-24T16:30:43.880Z,6.8
2024-03-24T16:31:58.120Z,6.9
2024-03-24T16:33:12.360Z,6.8
2024-03-24T16:34:26.599Z,6.9
2024-03-24T16:35:39.860Z,6.8
2024-03-24T16:36:54.100Z,6.9
2024-03-24T16:38:08.340Z,6.9
2024-03-24T16:39:22.579Z,6.9
2024-03-24T16:40:36.819Z,6.9
2024-03-24T16:41:51.059Z,6.8
2024-03-24T16:43:05.298Z,6.7
2024-03-24T16:44:19.538Z,6.5
2024-03-24T16:45:33.778Z,6.3
2024-03-24T16:46:48.017Z,6.2
2024-03-24T16:48:02.257Z,6.2
2024-03-24T16:49:16.497Z,6.1
2024-03-24T16:50:30.736Z,6.1
2024-03-24T16:51:43.992Z,6.1
2024-03-24T16:52:58.232Z,6.1
2024-03-24T16:54:12.471Z,6.1
2024-03-24T16:55:26.711Z,6.1
2024-03-24T16:56:40.951Z,6
2024-03-24T16:57:55.190Z,6
2024-03-24T16:59:09.429Z,6
2024-03-24T17:00:23.669Z,6.1
2024-03-24T17:01:37.908Z,6.1
2024-03-24T17:02:52.147Z,6.1
2024-03-24T17:04:06.387Z,6.1
2024-03-24T17:05:20.627Z,6.1
2024-03-24T17:06:34.867Z,6.1